sensor_id;sensor_type;location;lat;lon;timestamp;P1;durP1;ratioP1;P2;durP2;ratioP2
16199;SDS011;8207;52.494;4.654;2023-06-04T00:02:07;4.50;;;2.70;;
16199;SDS011;8207;52.494;4.654;2023-06-04T00:04:35;4.30;;;2.30;;
16199;SDS011;8207;52.494;4.654;2023-06-04T00:07:04;4.07;;;2.60;;
16199;SDS011;8207;52.494;4.654;2023-06-04T00:09:31;2.83;;;2.40;;
16199;SDS011;8207;52.494;4.654;2023-06-04T00:11:58;3.13;;;2.63;;
16199;SDS011;8207;52.494;4.654;2023-06-04T00:14:25;6.73;;;2.70;;
16199;SDS011;8207;52.494;4.654;2023-06-04T00:16:52;4.67;;;2.37;;
16199;SDS011;8207;52.494;4.654;2023-06-04T00:19:19;3.53;;;2.33;;
16199;SDS011;8207;52.494;4.654;2023-06-04T00:21:46;4.30;;;2.83;;
16199;SDS011;8207;52.494;4.654;2023-06-04T00:24:14;5.13;;;2.80;;
16199;SDS011;8207;52.494;4.654;2023-06-04T00:26:42;4.27;;;2.43;;
16199;SDS011;8207;52.494;4.654;2023-06-04T00:29:09;4.23;;;2.60;;
16199;SDS011;8207;52.494;4.654;2023-06-04T00:31:35;4.07;;;2.90;;
16199;SDS011;8207;52.494;4.654;2023-06-04T00:34:03;3.57;;;2.67;;
16199;SDS011;8207;52.494;4.654;2023-06-04T00:36:30;5.10;;;3.00;;
16199;SDS011;8207;52.494;4.654;2023-06-04T00:38:57;5.47;;;2.73;;
16199;SDS011;8207;52.494;4.654;2023-06-04T00:41:25;3.73;;;2.67;;
16199;SDS011;8207;52.494;4.654;2023-06-04T00:43:52;4.20;;;3.13;;
16199;SDS011;8207;52.494;4.654;2023-06-04T00:46:22;5.53;;;2.53;;
16199;SDS011;8207;52.494;4.654;2023-06-04T00:48:50;5.70;;;2.83;;
16199;SDS011;8207;52.494;4.654;2023-06-04T00:51:18;4.27;;;2.97;;
16199;SDS011;8207;52.494;4.654;2023-06-04T00:53:46;5.70;;;2.70;;
16199;SDS011;8207;52.494;4.654;2023-06-04T00:56:13;4.50;;;2.90;;
16199;SDS011;8207;52.494;4.654;2023-06-04T00:58:41;5.60;;;2.70;;
16199;SDS011;8207;52.494;4.654;2023-06-04T01:01:10;5.70;;;3.30;;
16199;SDS011;8207;52.494;4.654;2023-06-04T01:03:45;5.37;;;2.87;;
16199;SDS011;8207;52.494;4.654;2023-06-04T01:06:17;7.10;;;3.13;;
16199;SDS011;8207;52.494;4.654;2023-06-04T01:08:49;3.97;;;2.60;;
16199;SDS011;8207;52.494;4.654;2023-06-04T01:11:29;5.20;;;3.10;;
16199;SDS011;8207;52.494;4.654;2023-06-04T01:13:58;5.40;;;2.93;;
16199;SDS011;8207;52.494;4.654;2023-06-04T01:16:25;6.00;;;3.40;;
16199;SDS011;8207;52.494;4.654;2023-06-04T01:18:55;7.37;;;3.47;;
16199;SDS011;8207;52.494;4.654;2023-06-04T01:21:24;4.93;;;2.80;;
16199;SDS011;8207;52.494;4.654;2023-06-04T01:23:53;5.90;;;4.00;;
16199;SDS011;8207;52.494;4.654;2023-06-04T01:26:24;6.17;;;3.30;;
16199;SDS011;8207;52.494;4.654;2023-06-04T01:28:52;7.83;;;3.57;;
16199;SDS011;8207;52.494;4.654;2023-06-04T01:31:22;5.93;;;3.67;;
16199;SDS011;8207;52.494;4.654;2023-06-04T01:33:51;7.20;;;3.63;;
16199;SDS011;8207;52.494;4.654;2023-06-04T01:36:18;4.40;;;3.57;;
16199;SDS011;8207;52.494;4.654;2023-06-04T01:38:45;4.20;;;3.33;;
16199;SDS011;8207;52.494;4.654;2023-06-04T01:41:12;4.57;;;2.90;;
16199;SDS011;8207;52.494;4.654;2023-06-04T01:43:38;6.90;;;3.67;;
16199;SDS011;8207;52.494;4.654;2023-06-04T01:46:05;8.93;;;3.70;;
16199;SDS011;8207;52.494;4.654;2023-06-04T01:48:34;5.57;;;3.77;;
16199;SDS011;8207;52.494;4.654;2023-06-04T01:51:01;6.70;;;3.50;;
16199;SDS011;8207;52.494;4.654;2023-06-04T01:53:28;5.27;;;3.70;;
16199;SDS011;8207;52.494;4.654;2023-06-04T01:55:55;7.03;;;4.17;;
16199;SDS011;8207;52.494;4.654;2023-06-04T01:58:23;8.73;;;4.03;;
16199;SDS011;8207;52.494;4.654;2023-06-04T02:00:51;7.23;;;3.93;;
16199;SDS011;8207;52.494;4.654;2023-06-04T02:03:19;7.23;;;3.97;;
16199;SDS011;8207;52.494;4.654;2023-06-04T02:05:48;7.27;;;4.47;;
16199;SDS011;8207;52.494;4.654;2023-06-04T02:08:15;7.10;;;4.23;;
16199;SDS011;8207;52.494;4.654;2023-06-04T02:10:44;9.20;;;4.33;;
16199;SDS011;8207;52.494;4.654;2023-06-04T02:13:12;5.83;;;4.50;;
16199;SDS011;8207;52.494;4.654;2023-06-04T02:15:40;6.87;;;4.20;;
16199;SDS011;8207;52.494;4.654;2023-06-04T02:18:11;7.03;;;3.63;;
16199;SDS011;8207;52.494;4.654;2023-06-04T02:20:41;7.00;;;4.03;;
16199;SDS011;8207;52.494;4.654;2023-06-04T02:23:09;8.93;;;4.43;;
16199;SDS011;8207;52.494;4.654;2023-06-04T02:25:36;7.13;;;4.63;;
16199;SDS011;8207;52.494;4.654;2023-06-04T02:28:03;7.33;;;4.67;;
16199;SDS011;8207;52.494;4.654;2023-06-04T02:30:30;6.90;;;4.20;;
16199;SDS011;8207;52.494;4.654;2023-06-04T02:32:57;5.80;;;4.17;;
16199;SDS011;8207;52.494;4.654;2023-06-04T02:35:25;10.07;;;4.67;;
16199;SDS011;8207;52.494;4.654;2023-06-04T02:37:52;10.67;;;4.70;;
16199;SDS011;8207;52.494;4.654;2023-06-04T02:40:23;7.03;;;5.20;;
16199;SDS011;8207;52.494;4.654;2023-06-04T02:42:50;8.00;;;4.90;;
16199;SDS011;8207;52.494;4.654;2023-06-04T02:45:18;7.90;;;4.57;;
16199;SDS011;8207;52.494;4.654;2023-06-04T02:47:45;7.37;;;5.10;;
16199;SDS011;8207;52.494;4.654;2023-06-04T02:50:13;8.60;;;5.00;;
16199;SDS011;8207;52.494;4.654;2023-06-04T02:52:40;9.47;;;5.20;;
16199;SDS011;8207;52.494;4.654;2023-06-04T02:55:07;8.63;;;5.23;;
16199;SDS011;8207;52.494;4.654;2023-06-04T02:57:38;9.27;;;4.77;;
16199;SDS011;8207;52.494;4.654;2023-06-04T03:00:07;8.40;;;5.20;;
16199;SDS011;8207;52.494;4.654;2023-06-04T03:02:37;10.63;;;4.90;;
16199;SDS011;8207;52.494;4.654;2023-06-04T03:05:07;10.10;;;5.90;;
16199;SDS011;8207;52.494;4.654;2023-06-04T03:07:35;11.73;;;4.90;;
16199;SDS011;8207;52.494;4.654;2023-06-04T03:10:02;9.50;;;5.50;;
16199;SDS011;8207;52.494;4.654;2023-06-04T03:12:30;11.93;;;4.83;;
16199;SDS011;8207;52.494;4.654;2023-06-04T03:14:58;10.50;;;5.23;;
16199;SDS011;8207;52.494;4.654;2023-06-04T03:17:25;11.33;;;5.67;;
16199;SDS011;8207;52.494;4.654;2023-06-04T03:19:52;6.93;;;4.67;;
16199;SDS011;8207;52.494;4.654;2023-06-04T03:22:21;8.37;;;4.73;;
16199;SDS011;8207;52.494;4.654;2023-06-04T03:24:48;10.97;;;5.47;;
16199;SDS011;8207;52.494;4.654;2023-06-04T03:27:17;7.63;;;5.10;;
16199;SDS011;8207;52.494;4.654;2023-06-04T03:29:44;9.63;;;5.37;;
16199;SDS011;8207;52.494;4.654;2023-06-04T03:32:13;10.07;;;5.77;;
16199;SDS011;8207;52.494;4.654;2023-06-04T03:34:41;9.23;;;5.00;;
16199;SDS011;8207;52.494;4.654;2023-06-04T03:37:08;11.53;;;4.90;;
16199;SDS011;8207;52.494;4.654;2023-06-04T03:39:35;8.77;;;5.33;;
16199;SDS011;8207;52.494;4.654;2023-06-04T03:42:02;9.47;;;5.10;;
16199;SDS011;8207;52.494;4.654;2023-06-04T03:44:30;7.13;;;4.60;;
16199;SDS011;8207;52.494;4.654;2023-06-04T03:46:57;8.67;;;4.70;;
16199;SDS011;8207;52.494;4.654;2023-06-04T03:49:25;12.77;;;6.33;;
16199;SDS011;8207;52.494;4.654;2023-06-04T03:51:52;10.20;;;5.57;;
16199;SDS011;8207;52.494;4.654;2023-06-04T03:54:19;11.20;;;5.37;;
16199;SDS011;8207;52.494;4.654;2023-06-04T03:56:46;13.03;;;5.50;;
16199;SDS011;8207;52.494;4.654;2023-06-04T03:59:13;8.07;;;5.10;;
16199;SDS011;8207;52.494;4.654;2023-06-04T04:01:41;8.67;;;5.33;;
16199;SDS011;8207;52.494;4.654;2023-06-04T04:04:08;8.80;;;5.37;;
16199;SDS011;8207;52.494;4.654;2023-06-04T04:06:36;9.33;;;5.27;;
16199;SDS011;8207;52.494;4.654;2023-06-04T04:09:03;11.47;;;4.80;;
16199;SDS011;8207;52.494;4.654;2023-06-04T04:11:31;10.10;;;5.00;;
16199;SDS011;8207;52.494;4.654;2023-06-04T04:13:58;11.80;;;6.23;;
16199;SDS011;8207;52.494;4.654;2023-06-04T04:16:25;9.37;;;6.20;;
16199;SDS011;8207;52.494;4.654;2023-06-04T04:18:52;9.17;;;5.07;;
16199;SDS011;8207;52.494;4.654;2023-06-04T04:21:19;9.20;;;5.57;;
16199;SDS011;8207;52.494;4.654;2023-06-04T04:23:48;8.60;;;4.97;;
16199;SDS011;8207;52.494;4.654;2023-06-04T04:26:16;10.03;;;4.80;;
16199;SDS011;8207;52.494;4.654;2023-06-04T04:28:43;10.37;;;4.63;;
16199;SDS011;8207;52.494;4.654;2023-06-04T04:31:10;7.23;;;4.20;;
16199;SDS011;8207;52.494;4.654;2023-06-04T04:33:37;13.10;;;4.83;;
16199;SDS011;8207;52.494;4.654;2023-06-04T04:36:05;9.80;;;4.93;;
16199;SDS011;8207;52.494;4.654;2023-06-04T04:38:37;10.30;;;4.70;;
16199;SDS011;8207;52.494;4.654;2023-06-04T04:41:06;7.50;;;4.10;;
16199;SDS011;8207;52.494;4.654;2023-06-04T04:43:36;9.03;;;4.17;;
16199;SDS011;8207;52.494;4.654;2023-06-04T04:46:04;10.13;;;4.87;;
16199;SDS011;8207;52.494;4.654;2023-06-04T04:48:31;9.93;;;4.93;;
16199;SDS011;8207;52.494;4.654;2023-06-04T04:50:59;10.33;;;4.47;;
16199;SDS011;8207;52.494;4.654;2023-06-04T04:53:26;7.37;;;3.67;;
16199;SDS011;8207;52.494;4.654;2023-06-04T04:55:53;10.40;;;5.00;;
16199;SDS011;8207;52.494;4.654;2023-06-04T04:58:21;6.37;;;4.30;;
16199;SDS011;8207;52.494;4.654;2023-06-04T05:00:48;11.23;;;5.17;;
16199;SDS011;8207;52.494;4.654;2023-06-04T05:03:15;10.33;;;4.33;;
16199;SDS011;8207;52.494;4.654;2023-06-04T05:05:42;11.87;;;4.60;;
16199;SDS011;8207;52.494;4.654;2023-06-04T05:08:09;12.40;;;5.20;;
16199;SDS011;8207;52.494;4.654;2023-06-04T05:10:36;10.33;;;4.87;;
16199;SDS011;8207;52.494;4.654;2023-06-04T05:13:03;7.70;;;3.83;;
16199;SDS011;8207;52.494;4.654;2023-06-04T05:15:32;11.65;;;4.28;;
16199;SDS011;8207;52.494;4.654;2023-06-04T05:17:59;8.55;;;3.53;;
16199;SDS011;8207;52.494;4.654;2023-06-04T05:20:28;10.82;;;4.32;;
16199;SDS011;8207;52.494;4.654;2023-06-04T05:22:55;8.68;;;4.30;;
16199;SDS011;8207;52.494;4.654;2023-06-04T05:25:22;8.00;;;3.50;;
16199;SDS011;8207;52.494;4.654;2023-06-04T05:27:49;7.70;;;3.75;;
16199;SDS011;8207;52.494;4.654;2023-06-04T05:30:16;9.48;;;4.00;;
16199;SDS011;8207;52.494;4.654;2023-06-04T05:32:44;6.43;;;3.20;;
16199;SDS011;8207;52.494;4.654;2023-06-04T05:35:11;7.43;;;3.58;;
16199;SDS011;8207;52.494;4.654;2023-06-04T05:37:38;7.70;;;3.50;;
16199;SDS011;8207;52.494;4.654;2023-06-04T05:40:07;8.45;;;3.83;;
16199;SDS011;8207;52.494;4.654;2023-06-04T05:42:35;9.98;;;3.65;;
16199;SDS011;8207;52.494;4.654;2023-06-04T05:45:03;7.75;;;4.07;;
16199;SDS011;8207;52.494;4.654;2023-06-04T05:47:33;5.75;;;3.40;;
16199;SDS011;8207;52.494;4.654;2023-06-04T05:50:01;8.30;;;3.67;;
16199;SDS011;8207;52.494;4.654;2023-06-04T05:52:31;9.32;;;3.35;;
16199;SDS011;8207;52.494;4.654;2023-06-04T05:54:58;7.38;;;3.03;;
16199;SDS011;8207;52.494;4.654;2023-06-04T05:57:25;5.90;;;2.95;;
16199;SDS011;8207;52.494;4.654;2023-06-04T05:59:52;8.75;;;3.72;;
16199;SDS011;8207;52.494;4.654;2023-06-04T06:02:18;10.25;;;3.67;;
16199;SDS011;8207;52.494;4.654;2023-06-04T06:04:45;6.45;;;3.13;;
16199;SDS011;8207;52.494;4.654;2023-06-04T06:07:14;7.72;;;3.42;;
16199;SDS011;8207;52.494;4.654;2023-06-04T06:09:41;9.60;;;3.13;;
16199;SDS011;8207;52.494;4.654;2023-06-04T06:12:07;9.05;;;3.20;;
16199;SDS011;8207;52.494;4.654;2023-06-04T06:14:34;11.07;;;3.45;;
16199;SDS011;8207;52.494;4.654;2023-06-04T06:17:01;7.60;;;3.00;;
16199;SDS011;8207;52.494;4.654;2023-06-04T06:19:29;7.40;;;3.08;;
16199;SDS011;8207;52.494;4.654;2023-06-04T06:21:56;8.82;;;3.45;;
16199;SDS011;8207;52.494;4.654;2023-06-04T06:24:26;6.35;;;2.25;;
16199;SDS011;8207;52.494;4.654;2023-06-04T06:26:52;5.80;;;2.47;;
16199;SDS011;8207;52.494;4.654;2023-06-04T06:29:20;8.18;;;3.60;;
16199;SDS011;8207;52.494;4.654;2023-06-04T06:31:48;6.63;;;2.85;;
16199;SDS011;8207;52.494;4.654;2023-06-04T06:34:15;5.78;;;2.83;;
16199;SDS011;8207;52.494;4.654;2023-06-04T06:36:41;4.80;;;2.55;;
16199;SDS011;8207;52.494;4.654;2023-06-04T06:39:09;5.20;;;2.38;;
16199;SDS011;8207;52.494;4.654;2023-06-04T06:41:38;7.35;;;3.15;;
16199;SDS011;8207;52.494;4.654;2023-06-04T06:44:05;8.00;;;2.55;;
16199;SDS011;8207;52.494;4.654;2023-06-04T06:46:32;9.18;;;2.67;;
16199;SDS011;8207;52.494;4.654;2023-06-04T06:59:55;5.30;;;2.40;;
16199;SDS011;8207;52.494;4.654;2023-06-04T07:02:22;9.20;;;2.53;;
16199;SDS011;8207;52.494;4.654;2023-06-04T07:04:50;4.45;;;2.35;;
16199;SDS011;8207;52.494;4.654;2023-06-04T07:07:17;9.48;;;2.80;;
16199;SDS011;8207;52.494;4.654;2023-06-04T07:09:43;7.35;;;2.67;;
16199;SDS011;8207;52.494;4.654;2023-06-04T07:12:10;7.25;;;2.55;;
16199;SDS011;8207;52.494;4.654;2023-06-04T07:14:37;6.38;;;2.42;;
16199;SDS011;8207;52.494;4.654;2023-06-04T07:17:05;6.35;;;2.30;;
16199;SDS011;8207;52.494;4.654;2023-06-04T07:19:32;6.88;;;2.50;;
16199;SDS011;8207;52.494;4.654;2023-06-04T07:21:59;6.55;;;2.67;;
16199;SDS011;8207;52.494;4.654;2023-06-04T07:24:26;5.43;;;2.50;;
16199;SDS011;8207;52.494;4.654;2023-06-04T07:26:53;3.67;;;2.30;;
16199;SDS011;8207;52.494;4.654;2023-06-04T07:29:20;7.47;;;2.65;;
16199;SDS011;8207;52.494;4.654;2023-06-04T07:31:47;4.95;;;2.60;;
16199;SDS011;8207;52.494;4.654;2023-06-04T07:34:15;5.05;;;2.03;;
16199;SDS011;8207;52.494;4.654;2023-06-04T07:36:42;4.50;;;1.88;;
16199;SDS011;8207;52.494;4.654;2023-06-04T07:39:09;5.45;;;2.30;;
16199;SDS011;8207;52.494;4.654;2023-06-04T07:41:36;7.18;;;2.42;;
16199;SDS011;8207;52.494;4.654;2023-06-04T07:44:03;5.75;;;2.75;;
16199;SDS011;8207;52.494;4.654;2023-06-04T07:46:30;5.60;;;2.40;;
16199;SDS011;8207;52.494;4.654;2023-06-04T07:48:57;4.93;;;2.00;;
16199;SDS011;8207;52.494;4.654;2023-06-04T07:51:25;5.35;;;1.95;;
16199;SDS011;8207;52.494;4.654;2023-06-04T07:53:52;4.72;;;1.85;;
16199;SDS011;8207;52.494;4.654;2023-06-04T07:56:19;4.68;;;2.28;;
16199;SDS011;8207;52.494;4.654;2023-06-04T07:58:46;6.18;;;2.17;;
16199;SDS011;8207;52.494;4.654;2023-06-04T08:01:13;4.53;;;2.00;;
16199;SDS011;8207;52.494;4.654;2023-06-04T08:03:40;3.22;;;1.40;;
16199;SDS011;8207;52.494;4.654;2023-06-04T08:06:07;2.88;;;1.65;;
16199;SDS011;8207;52.494;4.654;2023-06-04T08:08:36;5.25;;;2.60;;
16199;SDS011;8207;52.494;4.654;2023-06-04T08:11:03;4.05;;;2.05;;
16199;SDS011;8207;52.494;4.654;2023-06-04T08:13:30;2.88;;;1.88;;
16199;SDS011;8207;52.494;4.654;2023-06-04T08:15:57;2.97;;;1.60;;
16199;SDS011;8207;52.494;4.654;2023-06-04T08:18:24;5.22;;;2.00;;
16199;SDS011;8207;52.494;4.654;2023-06-04T08:20:51;3.92;;;2.08;;
16199;SDS011;8207;52.494;4.654;2023-06-04T08:23:18;4.88;;;1.85;;
16199;SDS011;8207;52.494;4.654;2023-06-04T08:25:46;4.00;;;1.95;;
16199;SDS011;8207;52.494;4.654;2023-06-04T08:28:13;4.00;;;1.40;;
16199;SDS011;8207;52.494;4.654;2023-06-04T08:30:40;4.18;;;1.48;;
16199;SDS011;8207;52.494;4.654;2023-06-04T08:33:08;3.80;;;1.80;;
16199;SDS011;8207;52.494;4.654;2023-06-04T08:35:35;4.20;;;1.92;;
16199;SDS011;8207;52.494;4.654;2023-06-04T08:38:02;4.22;;;1.63;;
16199;SDS011;8207;52.494;4.654;2023-06-04T08:40:29;2.85;;;1.30;;
16199;SDS011;8207;52.494;4.654;2023-06-04T08:42:58;3.83;;;1.67;;
16199;SDS011;8207;52.494;4.654;2023-06-04T08:45:26;6.80;;;1.98;;
16199;SDS011;8207;52.494;4.654;2023-06-04T08:47:53;3.60;;;1.63;;
16199;SDS011;8207;52.494;4.654;2023-06-04T08:50:21;4.03;;;1.23;;
16199;SDS011;8207;52.494;4.654;2023-06-04T08:52:51;4.43;;;1.85;;
16199;SDS011;8207;52.494;4.654;2023-06-04T08:55:19;3.03;;;1.20;;
16199;SDS011;8207;52.494;4.654;2023-06-04T08:57:47;3.03;;;1.35;;
16199;SDS011;8207;52.494;4.654;2023-06-04T09:00:18;3.85;;;1.60;;
16199;SDS011;8207;52.494;4.654;2023-06-04T09:02:46;3.10;;;1.27;;
16199;SDS011;8207;52.494;4.654;2023-06-04T09:05:16;4.60;;;1.85;;
16199;SDS011;8207;52.494;4.654;2023-06-04T09:07:46;2.55;;;1.50;;
16199;SDS011;8207;52.494;4.654;2023-06-04T09:10:15;4.93;;;1.60;;
16199;SDS011;8207;52.494;4.654;2023-06-04T09:12:45;3.25;;;1.60;;
16199;SDS011;8207;52.494;4.654;2023-06-04T09:15:14;5.60;;;1.70;;
16199;SDS011;8207;52.494;4.654;2023-06-04T09:17:42;4.28;;;1.30;;
16199;SDS011;8207;52.494;4.654;2023-06-04T09:20:18;4.38;;;2.00;;
16199;SDS011;8207;52.494;4.654;2023-06-04T09:22:45;3.97;;;1.70;;
16199;SDS011;8207;52.494;4.654;2023-06-04T09:25:19;3.90;;;1.73;;
16199;SDS011;8207;52.494;4.654;2023-06-04T09:27:46;2.47;;;1.73;;
16199;SDS011;8207;52.494;4.654;2023-06-04T09:30:14;2.00;;;1.50;;
16199;SDS011;8207;52.494;4.654;2023-06-04T09:32:42;3.08;;;1.42;;
16199;SDS011;8207;52.494;4.654;2023-06-04T09:35:10;4.53;;;1.70;;
16199;SDS011;8207;52.494;4.654;2023-06-04T09:37:38;4.32;;;1.60;;
16199;SDS011;8207;52.494;4.654;2023-06-04T09:40:05;3.28;;;1.50;;
16199;SDS011;8207;52.494;4.654;2023-06-04T09:42:41;3.45;;;1.58;;
16199;SDS011;8207;52.494;4.654;2023-06-04T09:45:08;2.08;;;1.42;;
16199;SDS011;8207;52.494;4.654;2023-06-04T09:47:40;2.75;;;1.38;;
16199;SDS011;8207;52.494;4.654;2023-06-04T09:50:10;2.95;;;1.63;;
16199;SDS011;8207;52.494;4.654;2023-06-04T09:52:38;4.68;;;1.30;;
16199;SDS011;8207;52.494;4.654;2023-06-04T09:55:15;1.90;;;1.38;;
16199;SDS011;8207;52.494;4.654;2023-06-04T09:57:46;2.33;;;1.60;;
16199;SDS011;8207;52.494;4.654;2023-06-04T10:00:16;6.10;;;1.67;;
16199;SDS011;8207;52.494;4.654;2023-06-04T10:02:45;3.42;;;1.65;;
16199;SDS011;8207;52.494;4.654;2023-06-04T10:05:13;3.72;;;1.70;;
16199;SDS011;8207;52.494;4.654;2023-06-04T10:07:41;2.33;;;1.50;;
16199;SDS011;8207;52.494;4.654;2023-06-04T10:10:10;5.35;;;1.27;;
16199;SDS011;8207;52.494;4.654;2023-06-04T10:12:40;2.38;;;1.17;;
16199;SDS011;8207;52.494;4.654;2023-06-04T10:15:10;2.30;;;1.00;;
16199;SDS011;8207;52.494;4.654;2023-06-04T10:17:39;2.78;;;1.40;;
16199;SDS011;8207;52.494;4.654;2023-06-04T10:20:08;1.95;;;1.10;;
16199;SDS011;8207;52.494;4.654;2023-06-04T10:22:37;2.03;;;1.23;;
16199;SDS011;8207;52.494;4.654;2023-06-04T10:25:05;3.53;;;1.52;;
16199;SDS011;8207;52.494;4.654;2023-06-04T10:27:35;2.65;;;1.15;;
16199;SDS011;8207;52.494;4.654;2023-06-04T10:30:03;2.55;;;1.13;;
16199;SDS011;8207;52.494;4.654;2023-06-04T10:32:32;3.22;;;1.08;;
16199;SDS011;8207;52.494;4.654;2023-06-04T10:35:03;2.25;;;1.40;;
16199;SDS011;8207;52.494;4.654;2023-06-04T10:37:34;4.88;;;1.40;;
16199;SDS011;8207;52.494;4.654;2023-06-04T10:40:01;2.47;;;1.27;;
16199;SDS011;8207;52.494;4.654;2023-06-04T10:42:37;2.20;;;1.15;;
16199;SDS011;8207;52.494;4.654;2023-06-04T10:45:06;1.67;;;1.10;;
16199;SDS011;8207;52.494;4.654;2023-06-04T10:47:34;2.90;;;1.20;;
16199;SDS011;8207;52.494;4.654;2023-06-04T10:50:08;2.42;;;1.55;;
16199;SDS011;8207;52.494;4.654;2023-06-04T10:52:38;2.00;;;1.15;;
16199;SDS011;8207;52.494;4.654;2023-06-04T10:55:06;2.97;;;1.17;;
16199;SDS011;8207;52.494;4.654;2023-06-04T10:57:34;2.05;;;0.90;;
16199;SDS011;8207;52.494;4.654;2023-06-04T11:00:03;3.80;;;1.50;;
16199;SDS011;8207;52.494;4.654;2023-06-04T11:02:35;3.53;;;1.50;;
16199;SDS011;8207;52.494;4.654;2023-06-04T11:05:03;2.40;;;1.30;;
16199;SDS011;8207;52.494;4.654;2023-06-04T11:07:41;2.95;;;1.40;;
16199;SDS011;8207;52.494;4.654;2023-06-04T11:10:10;2.00;;;1.15;;
16199;SDS011;8207;52.494;4.654;2023-06-04T11:12:43;3.15;;;1.48;;
16199;SDS011;8207;52.494;4.654;2023-06-04T11:15:11;3.03;;;1.30;;
16199;SDS011;8207;52.494;4.654;2023-06-04T11:17:48;2.42;;;1.15;;
16199;SDS011;8207;52.494;4.654;2023-06-04T11:20:16;1.77;;;1.23;;
16199;SDS011;8207;52.494;4.654;2023-06-04T11:22:51;2.90;;;1.70;;
16199;SDS011;8207;52.494;4.654;2023-06-04T11:25:19;7.25;;;1.95;;
16199;SDS011;8207;52.494;4.654;2023-06-04T11:27:47;2.20;;;1.20;;
16199;SDS011;8207;52.494;4.654;2023-06-04T11:30:14;2.92;;;1.33;;
16199;SDS011;8207;52.494;4.654;2023-06-04T11:32:42;3.25;;;1.52;;
16199;SDS011;8207;52.494;4.654;2023-06-04T11:35:09;2.10;;;1.25;;
16199;SDS011;8207;52.494;4.654;2023-06-04T11:37:37;2.58;;;1.20;;
16199;SDS011;8207;52.494;4.654;2023-06-04T11:40:16;3.53;;;1.55;;
16199;SDS011;8207;52.494;4.654;2023-06-04T11:42:43;1.60;;;1.27;;
16199;SDS011;8207;52.494;4.654;2023-06-04T11:45:11;6.40;;;1.50;;
16199;SDS011;8207;52.494;4.654;2023-06-04T11:47:39;3.42;;;1.60;;
16199;SDS011;8207;52.494;4.654;2023-06-04T11:50:07;3.58;;;1.50;;
16199;SDS011;8207;52.494;4.654;2023-06-04T11:52:35;2.63;;;1.40;;
16199;SDS011;8207;52.494;4.654;2023-06-04T11:55:03;2.03;;;1.27;;
16199;SDS011;8207;52.494;4.654;2023-06-04T11:57:32;4.70;;;1.67;;
16199;SDS011;8207;52.494;4.654;2023-06-04T11:59:59;4.05;;;1.55;;
16199;SDS011;8207;52.494;4.654;2023-06-04T12:02:27;2.35;;;1.40;;
16199;SDS011;8207;52.494;4.654;2023-06-04T12:04:53;5.40;;;1.58;;
16199;SDS011;8207;52.494;4.654;2023-06-04T12:07:20;2.70;;;1.40;;
16199;SDS011;8207;52.494;4.654;2023-06-04T12:09:49;3.20;;;1.25;;
16199;SDS011;8207;52.494;4.654;2023-06-04T12:12:21;2.35;;;1.48;;
16199;SDS011;8207;52.494;4.654;2023-06-04T12:14:57;5.22;;;1.80;;
16199;SDS011;8207;52.494;4.654;2023-06-04T12:17:24;2.38;;;1.40;;
16199;SDS011;8207;52.494;4.654;2023-06-04T12:19:52;2.92;;;1.33;;
16199;SDS011;8207;52.494;4.654;2023-06-04T12:22:20;4.50;;;1.58;;
16199;SDS011;8207;52.494;4.654;2023-06-04T12:24:48;2.40;;;1.48;;
16199;SDS011;8207;52.494;4.654;2023-06-04T12:27:18;2.92;;;1.60;;
16199;SDS011;8207;52.494;4.654;2023-06-04T12:29:53;2.38;;;1.20;;
16199;SDS011;8207;52.494;4.654;2023-06-04T12:32:23;3.65;;;1.50;;
16199;SDS011;8207;52.494;4.654;2023-06-04T12:34:50;3.33;;;1.33;;
16199;SDS011;8207;52.494;4.654;2023-06-04T12:37:17;2.80;;;1.30;;
16199;SDS011;8207;52.494;4.654;2023-06-04T12:39:45;2.35;;;1.40;;
16199;SDS011;8207;52.494;4.654;2023-06-04T12:42:12;2.53;;;1.40;;
16199;SDS011;8207;52.494;4.654;2023-06-04T12:44:39;3.65;;;1.42;;
16199;SDS011;8207;52.494;4.654;2023-06-04T12:47:07;4.03;;;1.40;;
16199;SDS011;8207;52.494;4.654;2023-06-04T12:49:35;2.42;;;1.48;;
16199;SDS011;8207;52.494;4.654;2023-06-04T12:52:02;2.70;;;1.30;;
16199;SDS011;8207;52.494;4.654;2023-06-04T12:54:29;5.03;;;1.58;;
16199;SDS011;8207;52.494;4.654;2023-06-04T12:56:56;2.60;;;1.50;;
16199;SDS011;8207;52.494;4.654;2023-06-04T12:59:24;3.22;;;1.52;;
16199;SDS011;8207;52.494;4.654;2023-06-04T13:01:52;5.20;;;1.70;;
16199;SDS011;8207;52.494;4.654;2023-06-04T13:04:20;3.13;;;1.23;;
16199;SDS011;8207;52.494;4.654;2023-06-04T13:06:48;3.42;;;1.40;;
16199;SDS011;8207;52.494;4.654;2023-06-04T13:09:17;2.17;;;1.50;;
16199;SDS011;8207;52.494;4.654;2023-06-04T13:11:45;3.75;;;1.52;;
16199;SDS011;8207;52.494;4.654;2023-06-04T13:14:12;2.83;;;1.48;;
16199;SDS011;8207;52.494;4.654;2023-06-04T13:16:39;3.30;;;1.52;;
16199;SDS011;8207;52.494;4.654;2023-06-04T13:19:06;3.55;;;1.80;;
16199;SDS011;8207;52.494;4.654;2023-06-04T13:21:35;3.95;;;1.67;;
16199;SDS011;8207;52.494;4.654;2023-06-04T13:24:02;2.88;;;1.30;;
16199;SDS011;8207;52.494;4.654;2023-06-04T13:26:29;4.00;;;1.52;;
16199;SDS011;8207;52.494;4.654;2023-06-04T13:28:56;3.03;;;1.25;;
16199;SDS011;8207;52.494;4.654;2023-06-04T13:31:25;3.35;;;1.63;;
16199;SDS011;8207;52.494;4.654;2023-06-04T13:33:52;3.08;;;1.73;;
16199;SDS011;8207;52.494;4.654;2023-06-04T13:36:18;3.47;;;1.50;;
16199;SDS011;8207;52.494;4.654;2023-06-04T13:38:47;2.33;;;1.45;;
16199;SDS011;8207;52.494;4.654;2023-06-04T13:41:13;1.70;;;1.30;;
16199;SDS011;8207;52.494;4.654;2023-06-04T13:43:40;2.88;;;1.60;;
16199;SDS011;8207;52.494;4.654;2023-06-04T13:46:07;4.30;;;1.70;;
16199;SDS011;8207;52.494;4.654;2023-06-04T13:48:34;3.60;;;1.80;;
16199;SDS011;8207;52.494;4.654;2023-06-04T13:51:01;3.42;;;1.52;;
16199;SDS011;8207;52.494;4.654;2023-06-04T13:53:28;2.88;;;1.50;;
16199;SDS011;8207;52.494;4.654;2023-06-04T13:55:56;3.30;;;1.60;;
16199;SDS011;8207;52.494;4.654;2023-06-04T13:58:24;4.82;;;2.10;;
16199;SDS011;8207;52.494;4.654;2023-06-04T14:00:51;5.32;;;1.70;;
16199;SDS011;8207;52.494;4.654;2023-06-04T14:03:19;3.85;;;1.95;;
16199;SDS011;8207;52.494;4.654;2023-06-04T14:05:46;5.15;;;1.95;;
16199;SDS011;8207;52.494;4.654;2023-06-04T14:08:13;4.93;;;2.15;;
16199;SDS011;8207;52.494;4.654;2023-06-04T14:10:39;2.80;;;1.70;;
16199;SDS011;8207;52.494;4.654;2023-06-04T14:13:09;4.40;;;2.00;;
16199;SDS011;8207;52.494;4.654;2023-06-04T14:15:36;4.20;;;1.80;;
16199;SDS011;8207;52.494;4.654;2023-06-04T14:18:03;2.85;;;1.60;;
16199;SDS011;8207;52.494;4.654;2023-06-04T14:20:31;3.58;;;1.65;;
16199;SDS011;8207;52.494;4.654;2023-06-04T14:22:57;3.85;;;1.58;;
16199;SDS011;8207;52.494;4.654;2023-06-04T14:25:25;4.22;;;1.75;;
16199;SDS011;8207;52.494;4.654;2023-06-04T14:27:52;3.40;;;1.63;;
16199;SDS011;8207;52.494;4.654;2023-06-04T14:30:21;4.28;;;2.17;;
16199;SDS011;8207;52.494;4.654;2023-06-04T14:32:48;3.47;;;1.85;;
16199;SDS011;8207;52.494;4.654;2023-06-04T14:35:15;3.58;;;1.90;;
16199;SDS011;8207;52.494;4.654;2023-06-04T14:37:42;5.97;;;1.77;;
16199;SDS011;8207;52.494;4.654;2023-06-04T14:40:09;3.45;;;1.77;;
16199;SDS011;8207;52.494;4.654;2023-06-04T14:42:36;3.92;;;2.03;;
16199;SDS011;8207;52.494;4.654;2023-06-04T14:45:03;4.57;;;1.95;;
16199;SDS011;8207;52.494;4.654;2023-06-04T14:47:32;4.07;;;2.10;;
16199;SDS011;8207;52.494;4.654;2023-06-04T14:49:59;2.78;;;1.70;;
16199;SDS011;8207;52.494;4.654;2023-06-04T14:52:26;4.72;;;1.70;;
16199;SDS011;8207;52.494;4.654;2023-06-04T14:54:53;3.90;;;1.67;;
16199;SDS011;8207;52.494;4.654;2023-06-04T14:57:20;3.08;;;1.80;;
16199;SDS011;8207;52.494;4.654;2023-06-04T14:59:47;7.95;;;2.17;;
16199;SDS011;8207;52.494;4.654;2023-06-04T15:02:15;6.07;;;1.95;;
16199;SDS011;8207;52.494;4.654;2023-06-04T15:04:45;5.13;;;2.13;;
16199;SDS011;8207;52.494;4.654;2023-06-04T15:07:12;3.58;;;2.13;;
16199;SDS011;8207;52.494;4.654;2023-06-04T15:09:39;3.05;;;2.22;;
16199;SDS011;8207;52.494;4.654;2023-06-04T15:12:06;4.28;;;2.47;;
16199;SDS011;8207;52.494;4.654;2023-06-04T15:14:33;3.88;;;2.03;;
16199;SDS011;8207;52.494;4.654;2023-06-04T15:17:00;3.80;;;2.75;;